sensor_id;sensor_type;location;lat;lon;timestamp;temperature;humidity
11005;DHT22;5555;59.622;16.556;2023-03-01T00:01:12;1.70;99.90
11005;DHT22;5555;59.622;16.556;2023-03-01T00:03:38;1.60;99.90
11005;DHT22;5555;59.622;16.556;2023-03-01T00:06:04;1.60;99.90
11005;DHT22;5555;59.622;16.556;2023-03-01T00:08:30;1.50;99.90
11005;DHT22;5555;59.622;16.556;2023-03-01T00:11:36;1.60;99.90
11005;DHT22;5555;59.622;16.556;2023-03-01T00:14:02;1.60;99.90
11005;DHT22;5555;59.622;16.556;2023-03-01T00:16:32;1.60;99.90
11005;DHT22;5555;59.622;16.556;2023-03-01T00:18:59;1.60;99.90
11005;DHT22;5555;59.622;16.556;2023-03-01T00:21:24;1.70;99.90
11005;DHT22;5555;59.622;16.556;2023-03-01T00:23:51;1.70;99.90
11005;DHT22;5555;59.622;16.556;2023-03-01T00:26:18;1.70;99.90
11005;DHT22;5555;59.622;16.556;2023-03-01T00:28:44;1.70;99.90
11005;DHT22;5555;59.622;16.556;2023-03-01T00:31:13;1.80;99.90
11005;DHT22;5555;59.622;16.556;2023-03-01T00:33:39;1.70;99.90
11005;DHT22;5555;59.622;16.556;2023-03-01T00:36:06;1.70;99.90
11005;DHT22;5555;59.622;16.556;2023-03-01T00:38:35;1.70;99.90
11005;DHT22;5555;59.622;16.556;2023-03-01T00:41:06;1.80;99.90
11005;DHT22;5555;59.622;16.556;2023-03-01T00:43:32;1.80;99.90
11005;DHT22;5555;59.622;16.556;2023-03-01T00:46:04;1.80;99.90
11005;DHT22;5555;59.622;16.556;2023-03-01T00:48:30;1.70;99.90
11005;DHT22;5555;59.622;16.556;2023-03-01T00:50:55;1.70;99.90
11005;DHT22;5555;59.622;16.556;2023-03-01T00:53:21;1.70;99.90
11005;DHT22;5555;59.622;16.556;2023-03-01T00:55:46;1.60;99.90
11005;DHT22;5555;59.622;16.556;2023-03-01T00:58:12;1.70;99.90
11005;DHT22;5555;59.622;16.556;2023-03-01T01:00:38;1.60;99.90
11005;DHT22;5555;59.622;16.556;2023-03-01T01:03:03;1.60;99.90
11005;DHT22;5555;59.622;16.556;2023-03-01T01:05:29;1.60;99.90
11005;DHT22;5555;59.622;16.556;2023-03-01T01:07:54;1.60;99.90
11005;DHT22;5555;59.622;16.556;2023-03-01T01:10:20;1.60;99.90
11005;DHT22;5555;59.622;16.556;2023-03-01T01:12:45;1.50;99.90
11005;DHT22;5555;59.622;16.556;2023-03-01T01:15:12;1.50;99.90
11005;DHT22;5555;59.622;16.556;2023-03-01T01:17:39;1.40;99.90
11005;DHT22;5555;59.622;16.556;2023-03-01T01:20:06;1.40;99.90
11005;DHT22;5555;59.622;16.556;2023-03-01T01:22:32;1.30;99.90
11005;DHT22;5555;59.622;16.556;2023-03-01T01:24:58;1.20;99.90
11005;DHT22;5555;59.622;16.556;2023-03-01T01:27:23;1.10;99.90
11005;DHT22;5555;59.622;16.556;2023-03-01T01:29:49;1.10;99.90
11005;DHT22;5555;59.622;16.556;2023-03-01T01:32:15;1.10;99.90
11005;DHT22;5555;59.622;16.556;2023-03-01T01:34:40;1.10;99.90
11005;DHT22;5555;59.622;16.556;2023-03-01T01:37:06;1.10;99.90
11005;DHT22;5555;59.622;16.556;2023-03-01T01:39:34;1.10;99.90
11005;DHT22;5555;59.622;16.556;2023-03-01T01:42:00;1.00;99.90
11005;DHT22;5555;59.622;16.556;2023-03-01T01:44:28;0.90;99.90
11005;DHT22;5555;59.622;16.556;2023-03-01T01:47:01;0.90;99.90
11005;DHT22;5555;59.622;16.556;2023-03-01T01:49:33;0.80;99.90
11005;DHT22;5555;59.622;16.556;2023-03-01T01:52:09;0.80;99.90
11005;DHT22;5555;59.622;16.556;2023-03-01T01:54:38;0.80;99.90
11005;DHT22;5555;59.622;16.556;2023-03-01T01:57:09;0.90;99.90
11005;DHT22;5555;59.622;16.556;2023-03-01T01:59:36;0.90;99.90
11005;DHT22;5555;59.622;16.556;2023-03-01T02:02:03;0.80;99.90
11005;DHT22;5555;59.622;16.556;2023-03-01T02:04:31;0.80;99.90
11005;DHT22;5555;59.622;16.556;2023-03-01T02:07:02;0.80;99.90
11005;DHT22;5555;59.622;16.556;2023-03-01T02:09:30;0.80;99.90
11005;DHT22;5555;59.622;16.556;2023-03-01T02:11:57;0.80;99.90
11005;DHT22;5555;59.622;16.556;2023-03-01T02:14:23;0.80;99.90
11005;DHT22;5555;59.622;16.556;2023-03-01T02:16:49;0.80;99.90
11005;DHT22;5555;59.622;16.556;2023-03-01T02:22:30;0.70;99.90
11005;DHT22;5555;59.622;16.556;2023-03-01T02:30:32;0.60;99.90
11005;DHT22;5555;59.622;16.556;2023-03-01T02:32:59;0.60;99.90
11005;DHT22;5555;59.622;16.556;2023-03-01T02:35:29;0.60;99.90
11005;DHT22;5555;59.622;16.556;2023-03-01T02:37:57;0.50;99.90
11005;DHT22;5555;59.622;16.556;2023-03-01T02:40:29;0.50;99.90
11005;DHT22;5555;59.622;16.556;2023-03-01T02:42:57;0.50;99.90
11005;DHT22;5555;59.622;16.556;2023-03-01T02:45:24;0.50;99.90
11005;DHT22;5555;59.622;16.556;2023-03-01T02:47:53;0.50;99.90
11005;DHT22;5555;59.622;16.556;2023-03-01T02:53:10;0.40;99.90
11005;DHT22;5555;59.622;16.556;2023-03-01T02:55:37;0.30;99.90
11005;DHT22;5555;59.622;16.556;2023-03-01T02:58:03;0.20;99.90
11005;DHT22;5555;59.622;16.556;2023-03-01T03:00:38;0.20;99.90
11005;DHT22;5555;59.622;16.556;2023-03-01T03:03:09;0.20;99.90
11005;DHT22;5555;59.622;16.556;2023-03-01T03:05:35;0.20;99.90
11005;DHT22;5555;59.622;16.556;2023-03-01T03:08:02;0.20;99.90
11005;DHT22;5555;59.622;16.556;2023-03-01T03:10:31;0.20;99.90
11005;DHT22;5555;59.622;16.556;2023-03-01T03:12:59;0.20;99.90
11005;DHT22;5555;59.622;16.556;2023-03-01T03:15:26;0.20;99.90
11005;DHT22;5555;59.622;16.556;2023-03-01T03:17:53;0.20;99.90
11005;DHT22;5555;59.622;16.556;2023-03-01T03:20:21;0.10;99.90
11005;DHT22;5555;59.622;16.556;2023-03-01T03:22:49;0.10;99.90
11005;DHT22;5555;59.622;16.556;2023-03-01T03:25:17;0.00;99.90
11005;DHT22;5555;59.622;16.556;2023-03-01T03:27:44;0.00;99.90
11005;DHT22;5555;59.622;16.556;2023-03-01T03:30:12;0.00;99.90
11005;DHT22;5555;59.622;16.556;2023-03-01T03:32:43;0.10;99.90
11005;DHT22;5555;59.622;16.556;2023-03-01T03:35:18;0.20;99.90
11005;DHT22;5555;59.622;16.556;2023-03-01T03:37:44;0.20;99.90
11005;DHT22;5555;59.622;16.556;2023-03-01T03:40:39;0.30;99.90
11005;DHT22;5555;59.622;16.556;2023-03-01T03:43:23;0.30;99.90
11005;DHT22;5555;59.622;16.556;2023-03-01T03:45:50;0.30;99.90
11005;DHT22;5555;59.622;16.556;2023-03-01T03:48:16;0.30;99.90
11005;DHT22;5555;59.622;16.556;2023-03-01T03:50:48;0.40;99.90
11005;DHT22;5555;59.622;16.556;2023-03-01T03:53:14;0.30;99.90
11005;DHT22;5555;59.622;16.556;2023-03-01T03:55:40;0.40;99.90
11005;DHT22;5555;59.622;16.556;2023-03-01T03:58:08;0.30;99.90
11005;DHT22;5555;59.622;16.556;2023-03-01T04:00:44;0.30;99.90
11005;DHT22;5555;59.622;16.556;2023-03-01T04:03:11;0.30;99.90
11005;DHT22;5555;59.622;16.556;2023-03-01T04:05:38;0.30;99.90
11005;DHT22;5555;59.622;16.556;2023-03-01T04:08:05;0.30;99.90
11005;DHT22;5555;59.622;16.556;2023-03-01T04:13:01;0.20;99.90
11005;DHT22;5555;59.622;16.556;2023-03-01T04:15:27;0.30;99.90
11005;DHT22;5555;59.622;16.556;2023-03-01T04:17:54;0.20;99.90
11005;DHT22;5555;59.622;16.556;2023-03-01T04:20:26;0.20;99.90
11005;DHT22;5555;59.622;16.556;2023-03-01T04:22:53;0.10;99.90
11005;DHT22;5555;59.622;16.556;2023-03-01T04:25:22;0.00;99.90
11005;DHT22;5555;59.622;16.556;2023-03-01T04:27:48;0.00;99.90
11005;DHT22;5555;59.622;16.556;2023-03-01T04:30:14;0.00;99.90
11005;DHT22;5555;59.622;16.556;2023-03-01T04:32:40;0.00;99.90
11005;DHT22;5555;59.622;16.556;2023-03-01T04:35:06;0.00;99.90
11005;DHT22;5555;59.622;16.556;2023-03-01T04:37:31;-0.10;99.90
11005;DHT22;5555;59.622;16.556;2023-03-01T04:39:58;-0.10;99.90
11005;DHT22;5555;59.622;16.556;2023-03-01T04:42:23;-0.10;99.90
11005;DHT22;5555;59.622;16.556;2023-03-01T04:44:49;0.00;99.90
11005;DHT22;5555;59.622;16.556;2023-03-01T04:47:17;0.00;99.90
11005;DHT22;5555;59.622;16.556;2023-03-01T04:49:42;0.00;99.90
11005;DHT22;5555;59.622;16.556;2023-03-01T04:52:08;-0.10;99.90
11005;DHT22;5555;59.622;16.556;2023-03-01T04:54:35;-0.10;99.90
11005;DHT22;5555;59.622;16.556;2023-03-01T04:57:02;-0.10;99.90
11005;DHT22;5555;59.622;16.556;2023-03-01T04:59:28;-0.10;99.90
11005;DHT22;5555;59.622;16.556;2023-03-01T05:01:55;-0.10;99.90
11005;DHT22;5555;59.622;16.556;2023-03-01T05:04:22;0.00;99.90
11005;DHT22;5555;59.622;16.556;2023-03-01T05:06:48;0.10;99.90
11005;DHT22;5555;59.622;16.556;2023-03-01T05:09:13;0.30;99.90
11005;DHT22;5555;59.622;16.556;2023-03-01T05:11:39;0.40;99.90
11005;DHT22;5555;59.622;16.556;2023-03-01T05:14:05;0.50;99.90
11005;DHT22;5555;59.622;16.556;2023-03-01T05:16:33;0.50;99.90
11005;DHT22;5555;59.622;16.556;2023-03-01T05:18:59;0.40;99.90
11005;DHT22;5555;59.622;16.556;2023-03-01T05:21:25;0.50;99.90
11005;DHT22;5555;59.622;16.556;2023-03-01T05:23:51;0.50;99.90
11005;DHT22;5555;59.622;16.556;2023-03-01T05:26:19;0.50;99.90
11005;DHT22;5555;59.622;16.556;2023-03-01T05:28:47;0.50;99.90
11005;DHT22;5555;59.622;16.556;2023-03-01T05:31:13;0.60;99.90
11005;DHT22;5555;59.622;16.556;2023-03-01T05:33:39;0.60;99.90
11005;DHT22;5555;59.622;16.556;2023-03-01T05:36:07;0.60;99.90
11005;DHT22;5555;59.622;16.556;2023-03-01T05:38:33;0.60;99.90
11005;DHT22;5555;59.622;16.556;2023-03-01T05:40:59;0.60;99.90
11005;DHT22;5555;59.622;16.556;2023-03-01T05:43:25;0.70;99.90
11005;DHT22;5555;59.622;16.556;2023-03-01T05:45:51;0.70;99.90
11005;DHT22;5555;59.622;16.556;2023-03-01T05:48:16;0.70;99.90
11005;DHT22;5555;59.622;16.556;2023-03-01T05:50:45;0.60;99.90
11005;DHT22;5555;59.622;16.556;2023-03-01T05:53:17;0.40;99.90
11005;DHT22;5555;59.622;16.556;2023-03-01T05:55:44;0.40;99.90
11005;DHT22;5555;59.622;16.556;2023-03-01T05:58:15;0.30;99.90
11005;DHT22;5555;59.622;16.556;2023-03-01T06:00:43;0.40;99.90
11005;DHT22;5555;59.622;16.556;2023-03-01T06:03:11;0.30;99.90
11005;DHT22;5555;59.622;16.556;2023-03-01T06:05:38;0.40;99.90
11005;DHT22;5555;59.622;16.556;2023-03-01T06:08:05;0.40;99.90
11005;DHT22;5555;59.622;16.556;2023-03-01T06:10:30;0.40;99.90
11005;DHT22;5555;59.622;16.556;2023-03-01T06:12:56;0.40;99.90
11005;DHT22;5555;59.622;16.556;2023-03-01T06:15:23;0.40;99.90
11005;DHT22;5555;59.622;16.556;2023-03-01T06:17:49;0.50;99.90
11005;DHT22;5555;59.622;16.556;2023-03-01T06:20:20;0.60;99.90
11005;DHT22;5555;59.622;16.556;2023-03-01T06:22:46;0.60;99.90
11005;DHT22;5555;59.622;16.556;2023-03-01T06:25:14;0.70;99.90
11005;DHT22;5555;59.622;16.556;2023-03-01T06:27:41;0.70;99.90
11005;DHT22;5555;59.622;16.556;2023-03-01T06:30:08;0.80;99.90
11005;DHT22;5555;59.622;16.556;2023-03-01T06:32:36;0.80;99.90
11005;DHT22;5555;59.622;16.556;2023-03-01T06:35:03;0.80;99.90
11005;DHT22;5555;59.622;16.556;2023-03-01T06:37:29;0.80;99.90
11005;DHT22;5555;59.622;16.556;2023-03-01T06:39:54;0.90;99.90
11005;DHT22;5555;59.622;16.556;2023-03-01T06:42:20;0.90;99.90
11005;DHT22;5555;59.622;16.556;2023-03-01T06:44:46;1.00;99.90
11005;DHT22;5555;59.622;16.556;2023-03-01T06:47:12;0.90;99.90
11005;DHT22;5555;59.622;16.556;2023-03-01T06:49:38;0.90;99.90
11005;DHT22;5555;59.622;16.556;2023-03-01T06:52:03;0.90;99.90
11005;DHT22;5555;59.622;16.556;2023-03-01T06:54:29;0.90;99.90
11005;DHT22;5555;59.622;16.556;2023-03-01T06:56:55;1.00;99.90
11005;DHT22;5555;59.622;16.556;2023-03-01T06:59:20;1.10;99.90
11005;DHT22;5555;59.622;16.556;2023-03-01T07:01:46;1.10;99.90
11005;DHT22;5555;59.622;16.556;2023-03-01T07:04:13;1.20;99.90
11005;DHT22;5555;59.622;16.556;2023-03-01T07:06:38;1.30;99.90
11005;DHT22;5555;59.622;16.556;2023-03-01T07:09:04;1.40;99.90
11005;DHT22;5555;59.622;16.556;2023-03-01T07:11:30;1.40;99.90
11005;DHT22;5555;59.622;16.556;2023-03-01T07:13:55;1.50;99.90
11005;DHT22;5555;59.622;16.556;2023-03-01T07:16:21;1.60;99.90
11005;DHT22;5555;59.622;16.556;2023-03-01T07:18:47;1.60;99.90
11005;DHT22;5555;59.622;16.556;2023-03-01T07:21:13;1.60;99.90
11005;DHT22;5555;59.622;16.556;2023-03-01T07:23:40;1.70;99.90
11005;DHT22;5555;59.622;16.556;2023-03-01T07:26:06;1.80;99.90
11005;DHT22;5555;59.622;16.556;2023-03-01T07:28:32;1.90;99.90
11005;DHT22;5555;59.622;16.556;2023-03-01T07:31:07;1.90;99.90
11005;DHT22;5555;59.622;16.556;2023-03-01T07:33:33;2.00;99.90
11005;DHT22;5555;59.622;16.556;2023-03-01T07:36:03;2.10;99.90
11005;DHT22;5555;59.622;16.556;2023-03-01T07:38:29;2.10;99.90
11005;DHT22;5555;59.622;16.556;2023-03-01T07:41:01;2.20;99.90
11005;DHT22;5555;59.622;16.556;2023-03-01T07:43:31;2.30;99.90
11005;DHT22;5555;59.622;16.556;2023-03-01T07:46:00;2.40;99.90
11005;DHT22;5555;59.622;16.556;2023-03-01T07:48:27;2.50;99.90
11005;DHT22;5555;59.622;16.556;2023-03-01T07:50:52;2.60;99.90
11005;DHT22;5555;59.622;16.556;2023-03-01T07:53:18;2.70;99.90
11005;DHT22;5555;59.622;16.556;2023-03-01T07:55:44;2.90;99.90
11005;DHT22;5555;59.622;16.556;2023-03-01T07:58:09;3.00;99.90
11005;DHT22;5555;59.622;16.556;2023-03-01T08:00:35;3.10;99.90
11005;DHT22;5555;59.622;16.556;2023-03-01T08:03:01;3.20;99.90
11005;DHT22;5555;59.622;16.556;2023-03-01T08:05:28;3.20;99.90
11005;DHT22;5555;59.622;16.556;2023-03-01T08:07:54;3.30;99.90
11005;DHT22;5555;59.622;16.556;2023-03-01T08:10:20;3.40;99.90
11005;DHT22;5555;59.622;16.556;2023-03-01T08:12:45;3.50;99.90
11005;DHT22;5555;59.622;16.556;2023-03-01T08:15:11;3.50;99.90
11005;DHT22;5555;59.622;16.556;2023-03-01T08:17:37;3.70;99.90
11005;DHT22;5555;59.622;16.556;2023-03-01T08:20:03;3.80;99.90
11005;DHT22;5555;59.622;16.556;2023-03-01T08:22:31;3.80;99.90
11005;DHT22;5555;59.622;16.556;2023-03-01T08:24:57;3.80;99.90
11005;DHT22;5555;59.622;16.556;2023-03-01T08:27:22;3.90;99.90
11005;DHT22;5555;59.622;16.556;2023-03-01T08:29:48;4.00;99.90
11005;DHT22;5555;59.622;16.556;2023-03-01T08:32:13;4.00;99.90
11005;DHT22;5555;59.622;16.556;2023-03-01T08:34:39;4.10;99.90
11005;DHT22;5555;59.622;16.556;2023-03-01T08:37:05;4.20;99.90
11005;DHT22;5555;59.622;16.556;2023-03-01T08:39:30;4.30;99.90
11005;DHT22;5555;59.622;16.556;2023-03-01T08:41:56;4.40;99.90
11005;DHT22;5555;59.622;16.556;2023-03-01T08:44:22;4.40;99.90
11005;DHT22;5555;59.622;16.556;2023-03-01T08:46:48;4.40;99.90
11005;DHT22;5555;59.622;16.556;2023-03-01T08:49:19;4.50;99.90
11005;DHT22;5555;59.622;16.556;2023-03-01T08:51:46;4.60;99.90
11005;DHT22;5555;59.622;16.556;2023-03-01T08:54:17;4.70;99.90
11005;DHT22;5555;59.622;16.556;2023-03-01T08:56:43;4.70;99.90
11005;DHT22;5555;59.622;16.556;2023-03-01T08:59:10;4.80;99.90
11005;DHT22;5555;59.622;16.556;2023-03-01T09:01:36;5.00;99.90
11005;DHT22;5555;59.622;16.556;2023-03-01T09:04:02;5.10;99.90
11005;DHT22;5555;59.622;16.556;2023-03-01T09:06:31;5.20;99.90
11005;DHT22;5555;59.622;16.556;2023-03-01T09:08:58;5.10;99.90
11005;DHT22;5555;59.622;16.556;2023-03-01T09:11:24;5.20;99.90
11005;DHT22;5555;59.622;16.556;2023-03-01T09:13:49;5.30;99.90
11005;DHT22;5555;59.622;16.556;2023-03-01T09:16:18;5.40;99.90
11005;DHT22;5555;59.622;16.556;2023-03-01T09:18:45;5.50;99.90
11005;DHT22;5555;59.622;16.556;2023-03-01T09:21:13;5.60;99.90
11005;DHT22;5555;59.622;16.556;2023-03-01T09:23:44;5.70;99.90
11005;DHT22;5555;59.622;16.556;2023-03-01T09:26:16;5.80;99.90
11005;DHT22;5555;59.622;16.556;2023-03-01T09:28:42;5.90;99.90
11005;DHT22;5555;59.622;16.556;2023-03-01T09:31:09;6.00;99.90
11005;DHT22;5555;59.622;16.556;2023-03-01T09:33:39;6.10;99.90
11005;DHT22;5555;59.622;16.556;2023-03-01T09:36:07;6.20;99.90
11005;DHT22;5555;59.622;16.556;2023-03-01T09:38:33;6.30;99.90
11005;DHT22;5555;59.622;16.556;2023-03-01T09:41:00;6.40;99.90
11005;DHT22;5555;59.622;16.556;2023-03-01T09:43:40;6.40;99.90
11005;DHT22;5555;59.622;16.556;2023-03-01T09:46:09;6.50;99.90
11005;DHT22;5555;59.622;16.556;2023-03-01T09:48:44;6.60;99.90
11005;DHT22;5555;59.622;16.556;2023-03-01T09:51:18;6.60;99.90
11005;DHT22;5555;59.622;16.556;2023-03-01T09:53:45;6.70;99.90
11005;DHT22;5555;59.622;16.556;2023-03-01T10:01:35;6.90;99.90
11005;DHT22;5555;59.622;16.556;2023-03-01T10:04:20;7.00;99.90
11005;DHT22;5555;59.622;16.556;2023-03-01T10:07:02;7.00;99.90
11005;DHT22;5555;59.622;16.556;2023-03-01T10:09:33;6.90;99.90
11005;DHT22;5555;59.622;16.556;2023-03-01T10:12:01;7.00;99.90
11005;DHT22;5555;59.622;16.556;2023-03-01T10:14:38;7.00;99.90
11005;DHT22;5555;59.622;16.556;2023-03-01T10:17:24;7.10;99.90
11005;DHT22;5555;59.622;16.556;2023-03-01T10:19:51;7.20;99.90
11005;DHT22;5555;59.622;16.556;2023-03-01T10:22:29;7.10;99.90
11005;DHT22;5555;59.622;16.556;2023-03-01T10:24:58;7.20;99.90
11005;DHT22;5555;59.622;16.556;2023-03-01T10:27:29;7.30;99.90
11005;DHT22;5555;59.622;16.556;2023-03-01T10:30:16;7.40;99.90
11005;DHT22;5555;59.622;16.556;2023-03-01T10:32:46;7.30;99.90
11005;DHT22;5555;59.622;16.556;2023-03-01T10:35:24;7.50;99.90
11005;DHT22;5555;59.622;16.556;2023-03-01T10:38:03;7.60;99.90
11005;DHT22;5555;59.622;16.556;2023-03-01T10:40:29;7.80;99.90
11005;DHT22;5555;59.622;16.556;2023-03-01T10:42:58;7.80;99.90
11005;DHT22;5555;59.622;16.556;2023-03-01T10:45:39;7.90;99.90
11005;DHT22;5555;59.622;16.556;2023-03-01T10:48:10;7.90;99.90
11005;DHT22;5555;59.622;16.556;2023-03-01T10:50:38;7.90;99.90
11005;DHT22;5555;59.622;16.556;2023-03-01T10:56:20;8.20;99.90
11005;DHT22;5555;59.622;16.556;2023-03-01T10:59:01;8.40;99.90
11005;DHT22;5555;59.622;16.556;2023-03-01T11:01:29;8.30;99.90
11005;DHT22;5555;59.622;16.556;2023-03-01T11:06:33;8.60;99.90
11005;DHT22;5555;59.622;16.556;2023-03-01T11:09:18;8.60;99.90
11005;DHT22;5555;59.622;16.556;2023-03-01T11:11:44;8.70;99.90
11005;DHT22;5555;59.622;16.556;2023-03-01T11:14:28;8.70;99.90
11005;DHT22;5555;59.622;16.556;2023-03-01T11:17:12;8.90;99.90
11005;DHT22;5555;59.622;16.556;2023-03-01T11:19:40;8.90;99.90
11005;DHT22;5555;59.622;16.556;2023-03-01T11:22:16;9.00;99.90
11005;DHT22;5555;59.622;16.556;2023-03-01T11:24:51;8.90;99.90
11005;DHT22;5555;59.622;16.556;2023-03-01T11:27:23;9.20;99.90
11005;DHT22;5555;59.622;16.556;2023-03-01T11:29:59;9.10;99.90
11005;DHT22;5555;59.622;16.556;2023-03-01T11:32:29;8.90;99.90
11005;DHT22;5555;59.622;16.556;2023-03-01T11:40:37;9.20;99.90
11005;DHT22;5555;59.622;16.556;2023-03-01T11:43:18;9.30;99.90
11005;DHT22;5555;59.622;16.556;2023-03-01T11:51:48;9.60;99.90
11005;DHT22;5555;59.622;16.556;2023-03-01T11:57:20;9.60;99.90
11005;DHT22;5555;59.622;16.556;2023-03-01T12:02:24;10.10;99.90
11005;DHT22;5555;59.622;16.556;2023-03-01T12:10:22;10.20;99.90
11005;DHT22;5555;59.622;16.556;2023-03-01T12:15:33;10.30;99.90
11005;DHT22;5555;59.622;16.556;2023-03-01T12:21:22;10.80;99.90
11005;DHT22;5555;59.622;16.556;2023-03-01T12:26:35;10.80;99.90
11005;DHT22;5555;59.622;16.556;2023-03-01T12:40:29;11.40;99.90
11005;DHT22;5555;59.622;16.556;2023-03-01T12:49:13;12.00;99.90
11005;DHT22;5555;59.622;16.556;2023-03-01T12:51:40;11.80;99.90
11005;DHT22;5555;59.622;16.556;2023-03-01T12:54:16;12.10;99.90
11005;DHT22;5555;59.622;16.556;2023-03-01T12:56:46;12.00;99.90
11005;DHT22;5555;59.622;16.556;2023-03-01T12:59:50;12.30;99.90
11005;DHT22;5555;59.622;16.556;2023-03-01T13:11:00;12.20;99.90
11005;DHT22;5555;59.622;16.556;2023-03-01T13:13:27;11.40;99.90
11005;DHT22;5555;59.622;16.556;2023-03-01T13:15:54;11.40;99.90
11005;DHT22;5555;59.622;16.556;2023-03-01T13:23:26;12.60;99.90
11005;DHT22;5555;59.622;16.556;2023-03-01T13:26:16;12.50;99.90
11005;DHT22;5555;59.622;16.556;2023-03-01T13:34:00;13.40;99.90
11005;DHT22;5555;59.622;16.556;2023-03-01T13:46:55;13.50;98.30
11005;DHT22;5555;59.622;16.556;2023-03-01T13:49:25;12.90;99.20
11005;DHT22;5555;59.622;16.556;2023-03-01T13:51:52;12.10;99.90
11005;DHT22;5555;59.622;16.556;2023-03-01T13:54:37;12.30;99.80
11005;DHT22;5555;59.622;16.556;2023-03-01T13:57:03;12.50;99.60
11005;DHT22;5555;59.622;16.556;2023-03-01T13:59:29;12.50;99.30
11005;DHT22;5555;59.622;16.556;2023-03-01T14:01:58;13.00;99.40
11005;DHT22;5555;59.622;16.556;2023-03-01T14:04:28;13.30;99.00
11005;DHT22;5555;59.622;16.556;2023-03-01T14:07:16;12.50;99.60
11005;DHT22;5555;59.622;16.556;2023-03-01T14:09:45;13.00;99.50
11005;DHT22;5555;59.622;16.556;2023-03-01T14:15:06;13.60;99.20
11005;DHT22;5555;59.622;16.556;2023-03-01T14:17:52;12.90;99.40
11005;DHT22;5555;59.622;16.556;2023-03-01T14:20:24;12.20;99.70
11005;DHT22;5555;59.622;16.556;2023-03-01T14:22:54;12.30;99.90
11005;DHT22;5555;59.622;16.556;2023-03-01T14:28:10;12.00;99.90
11005;DHT22;5555;59.622;16.556;2023-03-01T14:30:49;11.90;99.90
11005;DHT22;5555;59.622;16.556;2023-03-01T14:33:24;11.40;99.90
11005;DHT22;5555;59.622;16.556;2023-03-01T14:35:58;11.50;99.90
11005;DHT22;5555;59.622;16.556;2023-03-01T14:38:45;11.70;99.90
11005;DHT22;5555;59.622;16.556;2023-03-01T14:41:20;11.90;99.90
11005;DHT22;5555;59.622;16.556;2023-03-01T14:43:50;11.50;99.90
11005;DHT22;5555;59.622;16.556;2023-03-01T14:46:37;11.70;99.90
11005;DHT22;5555;59.622;16.556;2023-03-01T14:49:18;11.90;99.90
11005;DHT22;5555;59.622;16.556;2023-03-01T14:52:06;11.90;99.90
11005;DHT22;5555;59.622;16.556;2023-03-01T14:54:44;11.90;99.90
11005;DHT22;5555;59.622;16.556;2023-03-01T14:57:28;11.30;99.90
11005;DHT22;5555;59.622;16.556;2023-03-01T15:00:02;11.20;99.90
11005;DHT22;5555;59.622;16.556;2023-03-01T15:02:31;11.30;99.90
11005;DHT22;5555;59.622;16.556;2023-03-01T15:05:01;10.90;99.90
11005;DHT22;5555;59.622;16.556;2023-03-01T15:07:34;11.50;99.90
11005;DHT22;5555;59.622;16.556;2023-03-01T15:10:01;12.30;99.90
11005;DHT22;5555;59.622;16.556;2023-03-01T15:14:53;11.00;99.90
11005;DHT22;5555;59.622;16.556;2023-03-01T15:17:33;10.40;99.90
11005;DHT22;5555;59.622;16.556;2023-03-01T15:20:02;9.80;99.90
11005;DHT22;5555;59.622;16.556;2023-03-01T15:22:29;9.50;99.90
11005;DHT22;5555;59.622;16.556;2023-03-01T15:24:55;9.20;99.90
11005;DHT22;5555;59.622;16.556;2023-03-01T15:27:23;9.00;99.90
11005;DHT22;5555;59.622;16.556;2023-03-01T15:29:53;8.80;99.90
11005;DHT22;5555;59.622;16.556;2023-03-01T15:32:32;8.70;99.90
11005;DHT22;5555;59.622;16.556;2023-03-01T15:35:00;8.50;99.90
11005;DHT22;5555;59.622;16.556;2023-03-01T15:37:39;8.40;99.90
11005;DHT22;5555;59.622;16.556;2023-03-01T15:40:25;8.30;99.90
11005;DHT22;5555;59.622;16.556;2023-03-01T15:42:57;8.20;99.90
11005;DHT22;5555;59.622;16.556;2023-03-01T15:45:26;8.10;99.90
11005;DHT22;5555;59.622;16.556;2023-03-01T15:47:58;8.10;99.90
11005;DHT22;5555;59.622;16.556;2023-03-01T15:50:31;8.10;99.90
11005;DHT22;5555;59.622;16.556;2023-03-01T15:53:04;8.00;99.90
11005;DHT22;5555;59.622;16.556;2023-03-01T15:55:32;7.90;99.90
11005;DHT22;5555;59.622;16.556;2023-03-01T15:58:22;7.90;99.90
11005;DHT22;5555;59.622;16.556;2023-03-01T16:00:49;7.80;99.90
11005;DHT22;5555;59.622;16.556;2023-03-01T16:03:17;7.70;99.90
11005;DHT22;5555;59.622;16.556;2023-03-01T16:05:47;7.50;99.90
11005;DHT22;5555;59.622;16.556;2023-03-01T16:08:13;7.40;99.90
11005;DHT22;5555;59.622;16.556;2023-03-01T16:10:40;7.40;99.90
11005;DHT22;5555;59.622;16.556;2023-03-01T16:13:06;7.40;99.90
11005;DHT22;5555;59.622;16.556;2023-03-01T16:15:33;7.40;99.90
11005;DHT22;5555;59.622;16.556;2023-03-01T16:18:03;7.40;99.90
11005;DHT22;5555;59.622;16.556;2023-03-01T16:20:30;7.30;99.90
11005;DHT22;5555;59.622;16.556;2023-03-01T16:23:06;7.30;99.90
11005;DHT22;5555;59.622;16.556;2023-03-01T16:25:32;7.40;99.90
11005;DHT22;5555;59.622;16.556;2023-03-01T16:27:58;7.30;99.90
11005;DHT22;5555;59.622;16.556;2023-03-01T16:30:26;7.30;99.90
11005;DHT22;5555;59.622;16.556;2023-03-01T16:32:52;7.30;99.90
11005;DHT22;5555;59.622;16.556;2023-03-01T16:35:19;7.30;99.90
11005;DHT22;5555;59.622;16.556;2023-03-01T16:37:46;7.20;99.90
11005;DHT22;5555;59.622;16.556;2023-03-01T16:40:32;7.30;99.90
11005;DHT22;5555;59.622;16.556;2023-03-01T16:42:58;7.20;99.90
11005;DHT22;5555;59.622;16.556;2023-03-01T16:45:28;7.20;99.90
11005;DHT22;5555;59.622;16.556;2023-03-01T16:47:58;7.10;99.90
11005;DHT22;5555;59.622;16.556;2023-03-01T16:50:23;7.10;99.90
11005;DHT22;5555;59.622;16.556;2023-03-01T16:52:49;7.10;99.90
11005;DHT22;5555;59.622;16.556;2023-03-01T16:55:15;7.10;99.90
11005;DHT22;5555;59.622;16.556;2023-03-01T16:57:41;7.10;99.90
11005;DHT22;5555;59.622;16.556;2023-03-01T17:00:07;7.10;99.90
11005;DHT22;5555;59.622;16.556;2023-03-01T17:02:39;7.20;99.90
11005;DHT22;5555;59.622;16.556;2023-03-01T17:05:06;7.20;99.90
11005;DHT22;5555;59.622;16.556;2023-03-01T17:07:33;7.20;99.90
11005;DHT22;5555;59.622;16.556;2023-03-01T17:10:00;7.10;99.90
11005;DHT22;5555;59.622;16.556;2023-03-01T17:12:26;7.10;99.90
11005;DHT22;5555;59.622;16.556;2023-03-01T17:14:52;7.00;99.90
11005;DHT22;5555;59.622;16.556;2023-03-01T17:17:18;7.10;99.90
11005;DHT22;5555;59.622;16.556;2023-03-01T17:19:43;7.00;99.90
11005;DHT22;5555;59.622;16.556;2023-03-01T17:22:10;7.10;99.90
11005;DHT22;5555;59.622;16.556;2023-03-01T17:24:40;7.10;99.90
11005;DHT22;5555;59.622;16.556;2023-03-01T17:27:06;7.10;99.90
11005;DHT22;5555;59.622;16.556;2023-03-01T17:29:32;7.10;99.90
11005;DHT22;5555;59.622;16.556;2023-03-01T17:31:58;7.10;99.90
11005;DHT22;5555;59.622;16.556;2023-03-01T17:34:25;7.10;99.90
11005;DHT22;5555;59.622;16.556;2023-03-01T17:36:51;7.10;99.90
11005;DHT22;5555;59.622;16.556;2023-03-01T17:39:18;7.10;99.90
11005;DHT22;5555;59.622;16.556;2023-03-01T17:41:51;7.10;99.90
11005;DHT22;5555;59.622;16.556;2023-03-01T17:44:17;7.00;99.90
11005;DHT22;5555;59.622;16.556;2023-03-01T17:46:42;7.00;99.90
11005;DHT22;5555;59.622;16.556;2023-03-01T17:49:08;7.00;99.90